sensor_id;sensor_type;location;lat;lon;timestamp;P1;durP1;ratioP1;P2;durP2;ratioP2
5519;SDS011;2782;52.362;10.012;2023-07-13T00:00:17;2.55;;;1.20;;
5519;SDS011;2782;52.362;10.012;2023-07-13T00:01:19;1.88;;;0.90;;
5519;SDS011;2782;52.362;10.012;2023-07-13T00:02:20;2.90;;;1.17;;
5519;SDS011;2782;52.362;10.012;2023-07-13T00:03:22;1.88;;;1.08;;
5519;SDS011;2782;52.362;10.012;2023-07-13T00:04:23;1.60;;;1.17;;
5519;SDS011;2782;52.362;10.012;2023-07-13T00:05:27;3.95;;;1.10;;
5519;SDS011;2782;52.362;10.012;2023-07-13T00:06:28;2.45;;;1.08;;
5519;SDS011;2782;52.362;10.012;2023-07-13T00:07:32;2.67;;;1.25;;
5519;SDS011;2782;52.362;10.012;2023-07-13T00:08:33;5.37;;;1.20;;
5519;SDS011;2782;52.362;10.012;2023-07-13T00:09:35;1.88;;;1.00;;
5519;SDS011;2782;52.362;10.012;2023-07-13T00:10:39;2.00;;;1.10;;
5519;SDS011;2782;52.362;10.012;2023-07-13T00:11:41;3.30;;;1.50;;
5519;SDS011;2782;52.362;10.012;2023-07-13T00:12:43;1.58;;;1.05;;
5519;SDS011;2782;52.362;10.012;2023-07-13T00:13:45;2.65;;;1.08;;
5519;SDS011;2782;52.362;10.012;2023-07-13T00:14:45;2.90;;;1.57;;
5519;SDS011;2782;52.362;10.012;2023-07-13T00:15:47;2.92;;;1.27;;
5519;SDS011;2782;52.362;10.012;2023-07-13T00:16:48;3.70;;;1.27;;
5519;SDS011;2782;52.362;10.012;2023-07-13T00:17:49;1.90;;;1.30;;
5519;SDS011;2782;52.362;10.012;2023-07-13T00:18:50;3.53;;;1.30;;
5519;SDS011;2782;52.362;10.012;2023-07-13T00:19:53;2.08;;;1.10;;
5519;SDS011;2782;52.362;10.012;2023-07-13T00:20:55;2.40;;;1.10;;
5519;SDS011;2782;52.362;10.012;2023-07-13T00:22:05;4.00;;;1.00;;
5519;SDS011;2782;52.362;10.012;2023-07-13T00:23:05;2.93;;;1.20;;
5519;SDS011;2782;52.362;10.012;2023-07-13T00:24:07;4.13;;;1.00;;
5519;SDS011;2782;52.362;10.012;2023-07-13T00:25:12;5.18;;;1.40;;
5519;SDS011;2782;52.362;10.012;2023-07-13T00:26:14;1.88;;;0.77;;
5519;SDS011;2782;52.362;10.012;2023-07-13T00:27:15;2.83;;;1.07;;
5519;SDS011;2782;52.362;10.012;2023-07-13T00:28:17;2.45;;;1.20;;
5519;SDS011;2782;52.362;10.012;2023-07-13T00:29:18;1.30;;;1.20;;
5519;SDS011;2782;52.362;10.012;2023-07-13T00:30:21;2.75;;;1.00;;
5519;SDS011;2782;52.362;10.012;2023-07-13T00:31:24;1.60;;;1.17;;
5519;SDS011;2782;52.362;10.012;2023-07-13T00:32:24;2.80;;;1.17;;
5519;SDS011;2782;52.362;10.012;2023-07-13T00:33:26;2.92;;;1.25;;
5519;SDS011;2782;52.362;10.012;2023-07-13T00:34:28;2.85;;;1.10;;
5519;SDS011;2782;52.362;10.012;2023-07-13T00:35:30;2.25;;;0.93;;
5519;SDS011;2782;52.362;10.012;2023-07-13T00:36:33;5.75;;;0.88;;
5519;SDS011;2782;52.362;10.012;2023-07-13T00:37:34;3.85;;;1.25;;
5519;SDS011;2782;52.362;10.012;2023-07-13T00:38:36;6.00;;;1.25;;
5519;SDS011;2782;52.362;10.012;2023-07-13T00:39:37;2.55;;;1.00;;
5519;SDS011;2782;52.362;10.012;2023-07-13T00:40:39;3.45;;;1.70;;
5519;SDS011;2782;52.362;10.012;2023-07-13T00:41:40;8.93;;;1.13;;
5519;SDS011;2782;52.362;10.012;2023-07-13T00:42:42;4.45;;;1.23;;
5519;SDS011;2782;52.362;10.012;2023-07-13T00:43:43;2.27;;;1.10;;
5519;SDS011;2782;52.362;10.012;2023-07-13T00:46:12;4.90;;;1.23;;
5519;SDS011;2782;52.362;10.012;2023-07-13T00:47:17;6.78;;;1.30;;
5519;SDS011;2782;52.362;10.012;2023-07-13T00:48:19;3.30;;;1.27;;
5519;SDS011;2782;52.362;10.012;2023-07-13T00:49:22;1.92;;;1.10;;
5519;SDS011;2782;52.362;10.012;2023-07-13T00:50:25;3.35;;;1.15;;
5519;SDS011;2782;52.362;10.012;2023-07-13T00:51:30;1.45;;;0.93;;
5519;SDS011;2782;52.362;10.012;2023-07-13T00:52:36;2.97;;;0.93;;
5519;SDS011;2782;52.362;10.012;2023-07-13T00:53:41;3.97;;;1.10;;
5519;SDS011;2782;52.362;10.012;2023-07-13T00:54:43;2.08;;;0.80;;
5519;SDS011;2782;52.362;10.012;2023-07-13T00:55:48;1.77;;;0.80;;
5519;SDS011;2782;52.362;10.012;2023-07-13T00:56:53;1.20;;;0.93;;
5519;SDS011;2782;52.362;10.012;2023-07-13T00:57:58;4.63;;;1.15;;
5519;SDS011;2782;52.362;10.012;2023-07-13T00:58:59;3.67;;;1.10;;
5519;SDS011;2782;52.362;10.012;2023-07-13T01:00:04;2.40;;;1.20;;
5519;SDS011;2782;52.362;10.012;2023-07-13T01:01:06;3.65;;;1.33;;
5519;SDS011;2782;52.362;10.012;2023-07-13T01:02:07;3.20;;;1.10;;
5519;SDS011;2782;52.362;10.012;2023-07-13T01:03:09;4.40;;;1.10;;
5519;SDS011;2782;52.362;10.012;2023-07-13T01:04:10;1.70;;;1.00;;
5519;SDS011;2782;52.362;10.012;2023-07-13T01:05:12;2.30;;;1.10;;
5519;SDS011;2782;52.362;10.012;2023-07-13T01:06:14;3.55;;;1.00;;
5519;SDS011;2782;52.362;10.012;2023-07-13T01:07:17;1.30;;;0.90;;
5519;SDS011;2782;52.362;10.012;2023-07-13T01:08:20;2.00;;;0.95;;
5519;SDS011;2782;52.362;10.012;2023-07-13T01:09:22;2.47;;;1.05;;
5519;SDS011;2782;52.362;10.012;2023-07-13T01:10:23;2.93;;;1.20;;
5519;SDS011;2782;52.362;10.012;2023-07-13T01:11:26;2.83;;;1.10;;
5519;SDS011;2782;52.362;10.012;2023-07-13T01:12:26;2.93;;;1.00;;
5519;SDS011;2782;52.362;10.012;2023-07-13T01:13:28;2.08;;;1.40;;
5519;SDS011;2782;52.362;10.012;2023-07-13T01:14:29;2.50;;;1.00;;
5519;SDS011;2782;52.362;10.012;2023-07-13T01:15:34;3.05;;;0.90;;
5519;SDS011;2782;52.362;10.012;2023-07-13T01:16:37;1.98;;;0.80;;
5519;SDS011;2782;52.362;10.012;2023-07-13T01:17:39;2.00;;;0.88;;
5519;SDS011;2782;52.362;10.012;2023-07-13T01:18:40;2.13;;;0.70;;
5519;SDS011;2782;52.362;10.012;2023-07-13T01:19:42;2.50;;;0.90;;
5519;SDS011;2782;52.362;10.012;2023-07-13T01:20:52;2.80;;;1.27;;
5519;SDS011;2782;52.362;10.012;2023-07-13T01:21:54;3.90;;;1.23;;
5519;SDS011;2782;52.362;10.012;2023-07-13T01:22:55;2.35;;;1.15;;
5519;SDS011;2782;52.362;10.012;2023-07-13T01:23:56;2.53;;;1.07;;
5519;SDS011;2782;52.362;10.012;2023-07-13T01:24:58;2.67;;;0.90;;
5519;SDS011;2782;52.362;10.012;2023-07-13T01:25:59;3.50;;;1.40;;
5519;SDS011;2782;52.362;10.012;2023-07-13T01:27:01;1.92;;;1.02;;
5519;SDS011;2782;52.362;10.012;2023-07-13T01:28:02;3.75;;;1.30;;
5519;SDS011;2782;52.362;10.012;2023-07-13T01:29:05;1.38;;;0.90;;
5519;SDS011;2782;52.362;10.012;2023-07-13T01:30:06;1.90;;;1.27;;
5519;SDS011;2782;52.362;10.012;2023-07-13T01:31:08;3.92;;;1.10;;
5519;SDS011;2782;52.362;10.012;2023-07-13T01:32:09;1.85;;;1.48;;
5519;SDS011;2782;52.362;10.012;2023-07-13T01:33:13;2.28;;;0.90;;
5519;SDS011;2782;52.362;10.012;2023-07-13T01:34:16;4.60;;;1.35;;
5519;SDS011;2782;52.362;10.012;2023-07-13T01:35:17;7.68;;;1.35;;
5519;SDS011;2782;52.362;10.012;2023-07-13T01:36:19;4.00;;;1.30;;
5519;SDS011;2782;52.362;10.012;2023-07-13T01:37:22;2.28;;;0.95;;
5519;SDS011;2782;52.362;10.012;2023-07-13T01:38:25;4.72;;;1.13;;
5519;SDS011;2782;52.362;10.012;2023-07-13T01:39:27;1.40;;;0.82;;
5519;SDS011;2782;52.362;10.012;2023-07-13T01:40:28;3.43;;;1.20;;
5519;SDS011;2782;52.362;10.012;2023-07-13T01:41:29;2.20;;;1.10;;
5519;SDS011;2782;52.362;10.012;2023-07-13T01:42:31;4.05;;;1.25;;
5519;SDS011;2782;52.362;10.012;2023-07-13T01:43:31;1.60;;;1.33;;
5519;SDS011;2782;52.362;10.012;2023-07-13T01:44:32;2.00;;;1.20;;
5519;SDS011;2782;52.362;10.012;2023-07-13T01:45:34;3.95;;;1.20;;
5519;SDS011;2782;52.362;10.012;2023-07-13T01:46:34;4.03;;;1.13;;
5519;SDS011;2782;52.362;10.012;2023-07-13T01:47:36;2.67;;;1.25;;
5519;SDS011;2782;52.362;10.012;2023-07-13T01:48:37;2.40;;;1.10;;
5519;SDS011;2782;52.362;10.012;2023-07-13T01:49:38;1.88;;;0.90;;
5519;SDS011;2782;52.362;10.012;2023-07-13T01:50:39;5.33;;;1.07;;
5519;SDS011;2782;52.362;10.012;2023-07-13T01:51:42;2.92;;;1.10;;
5519;SDS011;2782;52.362;10.012;2023-07-13T01:52:43;1.60;;;1.15;;
5519;SDS011;2782;52.362;10.012;2023-07-13T01:53:44;1.90;;;1.38;;
5519;SDS011;2782;52.362;10.012;2023-07-13T01:54:45;2.92;;;1.20;;
5519;SDS011;2782;52.362;10.012;2023-07-13T01:55:47;5.47;;;1.30;;
5519;SDS011;2782;52.362;10.012;2023-07-13T01:56:47;6.50;;;1.73;;
5519;SDS011;2782;52.362;10.012;2023-07-13T01:57:49;4.18;;;1.20;;
5519;SDS011;2782;52.362;10.012;2023-07-13T01:58:50;2.13;;;1.10;;
5519;SDS011;2782;52.362;10.012;2023-07-13T01:59:53;3.72;;;1.27;;
5519;SDS011;2782;52.362;10.012;2023-07-13T02:00:53;6.23;;;1.40;;
5519;SDS011;2782;52.362;10.012;2023-07-13T02:01:55;1.90;;;1.33;;
5519;SDS011;2782;52.362;10.012;2023-07-13T02:02:56;4.50;;;1.37;;
5519;SDS011;2782;52.362;10.012;2023-07-13T02:03:57;4.65;;;1.30;;
5519;SDS011;2782;52.362;10.012;2023-07-13T02:04:58;2.83;;;1.30;;
5519;SDS011;2782;52.362;10.012;2023-07-13T02:05:59;7.27;;;1.47;;
5519;SDS011;2782;52.362;10.012;2023-07-13T02:07:02;4.57;;;1.73;;
5519;SDS011;2782;52.362;10.012;2023-07-13T02:08:02;3.30;;;1.55;;
5519;SDS011;2782;52.362;10.012;2023-07-13T02:09:04;1.85;;;1.20;;
5519;SDS011;2782;52.362;10.012;2023-07-13T02:10:06;5.30;;;1.73;;
5519;SDS011;2782;52.362;10.012;2023-07-13T02:11:07;1.73;;;1.20;;
5519;SDS011;2782;52.362;10.012;2023-07-13T02:12:09;2.75;;;1.33;;
5519;SDS011;2782;52.362;10.012;2023-07-13T02:13:10;5.00;;;2.13;;
5519;SDS011;2782;52.362;10.012;2023-07-13T02:14:13;2.25;;;1.33;;
5519;SDS011;2782;52.362;10.012;2023-07-13T02:15:15;3.83;;;1.50;;
5519;SDS011;2782;52.362;10.012;2023-07-13T02:16:16;7.95;;;1.65;;
5519;SDS011;2782;52.362;10.012;2023-07-13T02:17:17;3.20;;;1.40;;
5519;SDS011;2782;52.362;10.012;2023-07-13T02:18:19;3.08;;;1.42;;
5519;SDS011;2782;52.362;10.012;2023-07-13T02:19:19;2.27;;;1.20;;
5519;SDS011;2782;52.362;10.012;2023-07-13T02:20:21;1.50;;;1.23;;
5519;SDS011;2782;52.362;10.012;2023-07-13T02:21:22;2.67;;;1.20;;
5519;SDS011;2782;52.362;10.012;2023-07-13T02:22:25;2.65;;;1.38;;
5519;SDS011;2782;52.362;10.012;2023-07-13T02:23:26;3.60;;;1.40;;
5519;SDS011;2782;52.362;10.012;2023-07-13T02:24:28;3.22;;;1.20;;
5519;SDS011;2782;52.362;10.012;2023-07-13T02:25:28;2.90;;;1.60;;
5519;SDS011;2782;52.362;10.012;2023-07-13T02:26:30;2.80;;;1.42;;
5519;SDS011;2782;52.362;10.012;2023-07-13T02:27:31;1.97;;;1.20;;
5519;SDS011;2782;52.362;10.012;2023-07-13T02:28:32;4.63;;;1.50;;
5519;SDS011;2782;52.362;10.012;2023-07-13T02:29:33;3.83;;;1.30;;
5519;SDS011;2782;52.362;10.012;2023-07-13T02:30:35;3.83;;;1.35;;
5519;SDS011;2782;52.362;10.012;2023-07-13T02:31:36;4.28;;;1.67;;
5519;SDS011;2782;52.362;10.012;2023-07-13T02:32:37;4.13;;;1.77;;
5519;SDS011;2782;52.362;10.012;2023-07-13T02:33:38;2.10;;;1.23;;
5519;SDS011;2782;52.362;10.012;2023-07-13T02:34:41;6.28;;;1.50;;
5519;SDS011;2782;52.362;10.012;2023-07-13T02:35:42;1.58;;;1.08;;
5519;SDS011;2782;52.362;10.012;2023-07-13T02:36:43;4.10;;;1.50;;
5519;SDS011;2782;52.362;10.012;2023-07-13T02:37:45;3.30;;;1.70;;
5519;SDS011;2782;52.362;10.012;2023-07-13T02:38:49;1.88;;;1.00;;
5519;SDS011;2782;52.362;10.012;2023-07-13T02:39:49;3.13;;;1.40;;
5519;SDS011;2782;52.362;10.012;2023-07-13T02:40:51;4.10;;;1.67;;
5519;SDS011;2782;52.362;10.012;2023-07-13T02:41:52;3.37;;;1.50;;
5519;SDS011;2782;52.362;10.012;2023-07-13T02:42:53;3.97;;;1.30;;
5519;SDS011;2782;52.362;10.012;2023-07-13T02:43:54;2.43;;;1.00;;
5519;SDS011;2782;52.362;10.012;2023-07-13T02:45:02;4.22;;;1.88;;
5519;SDS011;2782;52.362;10.012;2023-07-13T02:46:03;1.80;;;1.30;;
5519;SDS011;2782;52.362;10.012;2023-07-13T02:47:07;3.08;;;1.13;;
5519;SDS011;2782;52.362;10.012;2023-07-13T02:48:07;5.90;;;1.80;;
5519;SDS011;2782;52.362;10.012;2023-07-13T02:49:09;3.90;;;1.52;;
5519;SDS011;2782;52.362;10.012;2023-07-13T02:50:10;4.33;;;1.30;;
5519;SDS011;2782;52.362;10.012;2023-07-13T02:51:11;1.30;;;1.15;;
5519;SDS011;2782;52.362;10.012;2023-07-13T02:52:12;5.20;;;1.70;;
5519;SDS011;2782;52.362;10.012;2023-07-13T02:53:15;3.15;;;1.70;;
5519;SDS011;2782;52.362;10.012;2023-07-13T02:54:15;4.95;;;1.30;;
5519;SDS011;2782;52.362;10.012;2023-07-13T02:55:17;7.18;;;1.30;;
5519;SDS011;2782;52.362;10.012;2023-07-13T02:56:19;4.67;;;1.40;;
5519;SDS011;2782;52.362;10.012;2023-07-13T02:57:23;5.03;;;1.70;;
5519;SDS011;2782;52.362;10.012;2023-07-13T02:58:23;4.87;;;2.20;;
5519;SDS011;2782;52.362;10.012;2023-07-13T02:59:25;3.60;;;1.30;;
5519;SDS011;2782;52.362;10.012;2023-07-13T03:00:26;4.30;;;1.30;;
5519;SDS011;2782;52.362;10.012;2023-07-13T03:01:28;1.50;;;1.38;;
5519;SDS011;2782;52.362;10.012;2023-07-13T03:02:29;9.73;;;2.60;;
5519;SDS011;2782;52.362;10.012;2023-07-13T03:03:32;2.53;;;1.73;;
5519;SDS011;2782;52.362;10.012;2023-07-13T03:04:34;3.20;;;1.33;;
5519;SDS011;2782;52.362;10.012;2023-07-13T03:05:36;3.50;;;1.42;;
5519;SDS011;2782;52.362;10.012;2023-07-13T03:06:37;5.90;;;1.50;;
5519;SDS011;2782;52.362;10.012;2023-07-13T03:07:39;3.70;;;1.40;;
5519;SDS011;2782;52.362;10.012;2023-07-13T03:08:41;3.80;;;1.07;;
5519;SDS011;2782;52.362;10.012;2023-07-13T03:09:43;2.20;;;1.50;;
5519;SDS011;2782;52.362;10.012;2023-07-13T03:10:44;2.10;;;1.20;;
5519;SDS011;2782;52.362;10.012;2023-07-13T03:11:45;3.45;;;1.40;;
5519;SDS011;2782;52.362;10.012;2023-07-13T03:12:46;4.13;;;1.70;;
5519;SDS011;2782;52.362;10.012;2023-07-13T03:13:47;2.08;;;1.10;;
5519;SDS011;2782;52.362;10.012;2023-07-13T03:14:48;2.70;;;1.33;;
5519;SDS011;2782;52.362;10.012;2023-07-13T03:15:50;1.67;;;0.90;;
5519;SDS011;2782;52.362;10.012;2023-07-13T03:16:50;2.00;;;1.43;;
5519;SDS011;2782;52.362;10.012;2023-07-13T03:17:52;3.25;;;1.27;;
5519;SDS011;2782;52.362;10.012;2023-07-13T03:18:53;5.13;;;1.57;;
5519;SDS011;2782;52.362;10.012;2023-07-13T03:19:54;4.40;;;1.70;;
5519;SDS011;2782;52.362;10.012;2023-07-13T03:20:55;7.07;;;1.30;;
5519;SDS011;2782;52.362;10.012;2023-07-13T03:21:56;5.90;;;1.60;;
5519;SDS011;2782;52.362;10.012;2023-07-13T03:22:58;2.60;;;1.42;;
5519;SDS011;2782;52.362;10.012;2023-07-13T03:23:59;2.73;;;1.20;;
5519;SDS011;2782;52.362;10.012;2023-07-13T03:25:01;2.05;;;1.15;;
5519;SDS011;2782;52.362;10.012;2023-07-13T03:26:03;2.93;;;1.30;;
5519;SDS011;2782;52.362;10.012;2023-07-13T03:27:07;3.40;;;1.58;;
5519;SDS011;2782;52.362;10.012;2023-07-13T03:28:08;8.07;;;1.40;;
5519;SDS011;2782;52.362;10.012;2023-07-13T03:29:10;2.00;;;1.02;;
5519;SDS011;2782;52.362;10.012;2023-07-13T03:30:11;3.00;;;1.07;;
5519;SDS011;2782;52.362;10.012;2023-07-13T03:31:14;5.20;;;1.38;;
5519;SDS011;2782;52.362;10.012;2023-07-13T03:32:16;3.60;;;1.20;;
5519;SDS011;2782;52.362;10.012;2023-07-13T03:33:18;2.60;;;1.15;;
5519;SDS011;2782;52.362;10.012;2023-07-13T03:34:20;2.40;;;1.15;;
5519;SDS011;2782;52.362;10.012;2023-07-13T03:35:21;2.85;;;1.13;;
5519;SDS011;2782;52.362;10.012;2023-07-13T03:36:23;2.03;;;1.33;;
5519;SDS011;2782;52.362;10.012;2023-07-13T03:37:27;2.47;;;1.30;;
5519;SDS011;2782;52.362;10.012;2023-07-13T03:38:28;9.02;;;1.60;;
5519;SDS011;2782;52.362;10.012;2023-07-13T03:39:31;2.35;;;1.00;;
5519;SDS011;2782;52.362;10.012;2023-07-13T03:40:31;1.50;;;1.00;;
5519;SDS011;2782;52.362;10.012;2023-07-13T03:41:33;3.00;;;1.50;;
5519;SDS011;2782;52.362;10.012;2023-07-13T03:42:34;3.30;;;1.10;;
5519;SDS011;2782;52.362;10.012;2023-07-13T03:43:35;13.68;;;1.45;;
5519;SDS011;2782;52.362;10.012;2023-07-13T03:44:36;3.43;;;1.00;;
5519;SDS011;2782;52.362;10.012;2023-07-13T03:45:38;3.63;;;1.17;;
5519;SDS011;2782;52.362;10.012;2023-07-13T03:46:38;3.40;;;0.87;;
5519;SDS011;2782;52.362;10.012;2023-07-13T03:47:40;5.85;;;1.45;;
5519;SDS011;2782;52.362;10.012;2023-07-13T03:48:41;1.90;;;0.90;;
5519;SDS011;2782;52.362;10.012;2023-07-13T03:49:43;4.30;;;0.90;;
5519;SDS011;2782;52.362;10.012;2023-07-13T03:50:46;3.67;;;1.23;;
5519;SDS011;2782;52.362;10.012;2023-07-13T03:51:49;1.63;;;1.40;;
5519;SDS011;2782;52.362;10.012;2023-07-13T03:52:49;4.00;;;0.73;;
5519;SDS011;2782;52.362;10.012;2023-07-13T03:53:51;4.25;;;0.93;;
5519;SDS011;2782;52.362;10.012;2023-07-13T03:54:53;3.67;;;1.40;;
5519;SDS011;2782;52.362;10.012;2023-07-13T03:55:54;3.15;;;0.93;;
5519;SDS011;2782;52.362;10.012;2023-07-13T03:56:55;4.80;;;1.20;;
5519;SDS011;2782;52.362;10.012;2023-07-13T03:57:58;7.10;;;1.45;;
5519;SDS011;2782;52.362;10.012;2023-07-13T03:59:00;4.20;;;1.15;;
5519;SDS011;2782;52.362;10.012;2023-07-13T04:00:02;4.25;;;1.02;;
5519;SDS011;2782;52.362;10.012;2023-07-13T04:01:04;2.10;;;1.10;;
5519;SDS011;2782;52.362;10.012;2023-07-13T04:02:07;3.40;;;1.00;;
5519;SDS011;2782;52.362;10.012;2023-07-13T04:03:08;2.30;;;0.88;;
5519;SDS011;2782;52.362;10.012;2023-07-13T04:04:09;9.23;;;1.40;;
5519;SDS011;2782;52.362;10.012;2023-07-13T04:05:12;5.75;;;1.05;;
5519;SDS011;2782;52.362;10.012;2023-07-13T04:06:14;1.43;;;0.90;;
5519;SDS011;2782;52.362;10.012;2023-07-13T04:07:21;3.72;;;1.20;;
5519;SDS011;2782;52.362;10.012;2023-07-13T04:08:21;2.93;;;1.20;;
5519;SDS011;2782;52.362;10.012;2023-07-13T04:09:23;1.70;;;1.00;;
5519;SDS011;2782;52.362;10.012;2023-07-13T04:10:25;2.20;;;1.00;;
5519;SDS011;2782;52.362;10.012;2023-07-13T04:11:27;5.30;;;1.15;;
5519;SDS011;2782;52.362;10.012;2023-07-13T04:12:29;3.97;;;1.00;;
5519;SDS011;2782;52.362;10.012;2023-07-13T04:13:31;1.88;;;0.70;;
5519;SDS011;2782;52.362;10.012;2023-07-13T04:14:32;5.70;;;1.00;;
5519;SDS011;2782;52.362;10.012;2023-07-13T04:15:33;4.20;;;1.50;;
5519;SDS011;2782;52.362;10.012;2023-07-13T04:16:34;5.87;;;1.57;;
5519;SDS011;2782;52.362;10.012;2023-07-13T04:17:35;2.63;;;1.20;;
5519;SDS011;2782;52.362;10.012;2023-07-13T04:18:36;2.83;;;1.40;;
5519;SDS011;2782;52.362;10.012;2023-07-13T04:19:38;8.50;;;1.60;;
5519;SDS011;2782;52.362;10.012;2023-07-13T04:20:39;4.60;;;1.37;;
5519;SDS011;2782;52.362;10.012;2023-07-13T04:21:39;7.63;;;1.70;;
5519;SDS011;2782;52.362;10.012;2023-07-13T04:22:41;4.63;;;1.23;;
5519;SDS011;2782;52.362;10.012;2023-07-13T04:23:41;1.80;;;0.97;;
5519;SDS011;2782;52.362;10.012;2023-07-13T04:24:43;1.48;;;1.00;;
5519;SDS011;2782;52.362;10.012;2023-07-13T04:25:45;5.10;;;1.50;;
5519;SDS011;2782;52.362;10.012;2023-07-13T04:26:49;8.43;;;1.48;;
5519;SDS011;2782;52.362;10.012;2023-07-13T04:27:49;7.10;;;1.80;;
5519;SDS011;2782;52.362;10.012;2023-07-13T04:28:52;9.75;;;1.83;;
5519;SDS011;2782;52.362;10.012;2023-07-13T04:29:53;3.80;;;1.48;;
5519;SDS011;2782;52.362;10.012;2023-07-13T04:30:54;3.83;;;1.65;;
5519;SDS011;2782;52.362;10.012;2023-07-13T04:31:55;5.80;;;1.43;;
5519;SDS011;2782;52.362;10.012;2023-07-13T04:32:57;2.65;;;1.23;;
5519;SDS011;2782;52.362;10.012;2023-07-13T04:33:57;3.23;;;1.40;;
5519;SDS011;2782;52.362;10.012;2023-07-13T04:34:59;3.85;;;1.73;;
5519;SDS011;2782;52.362;10.012;2023-07-13T04:36:00;11.77;;;1.80;;
5519;SDS011;2782;52.362;10.012;2023-07-13T04:37:02;2.17;;;1.00;;
5519;SDS011;2782;52.362;10.012;2023-07-13T04:38:04;3.58;;;1.48;;
5519;SDS011;2782;52.362;10.012;2023-07-13T04:39:06;3.80;;;1.20;;
5519;SDS011;2782;52.362;10.012;2023-07-13T04:40:07;8.27;;;1.40;;
5519;SDS011;2782;52.362;10.012;2023-07-13T04:41:13;4.60;;;1.52;;
5519;SDS011;2782;52.362;10.012;2023-07-13T04:42:15;8.07;;;1.35;;
5519;SDS011;2782;52.362;10.012;2023-07-13T04:43:17;3.92;;;1.35;;
5519;SDS011;2782;52.362;10.012;2023-07-13T04:44:17;3.00;;;1.00;;
5519;SDS011;2782;52.362;10.012;2023-07-13T04:45:19;5.95;;;1.23;;
5519;SDS011;2782;52.362;10.012;2023-07-13T04:46:20;1.93;;;1.00;;
5519;SDS011;2782;52.362;10.012;2023-07-13T04:47:21;2.22;;;1.05;;
5519;SDS011;2782;52.362;10.012;2023-07-13T04:48:22;1.60;;;1.00;;
5519;SDS011;2782;52.362;10.012;2023-07-13T04:49:23;5.32;;;1.60;;
5519;SDS011;2782;52.362;10.012;2023-07-13T04:50:25;5.65;;;1.25;;
5519;SDS011;2782;52.362;10.012;2023-07-13T04:51:26;6.80;;;1.50;;
5519;SDS011;2782;52.362;10.012;2023-07-13T04:52:27;5.57;;;1.30;;
5519;SDS011;2782;52.362;10.012;2023-07-13T04:53:28;4.57;;;1.10;;
5519;SDS011;2782;52.362;10.012;2023-07-13T04:54:32;5.93;;;1.95;;
5519;SDS011;2782;52.362;10.012;2023-07-13T04:55:33;3.13;;;1.00;;
5519;SDS011;2782;52.362;10.012;2023-07-13T04:56:36;4.65;;;1.38;;
5519;SDS011;2782;52.362;10.012;2023-07-13T04:57:36;2.92;;;1.10;;
5519;SDS011;2782;52.362;10.012;2023-07-13T04:58:38;2.97;;;0.80;;
5519;SDS011;2782;52.362;10.012;2023-07-13T04:59:40;3.78;;;0.90;;
5519;SDS011;2782;52.362;10.012;2023-07-13T05:00:41;4.05;;;1.00;;
5519;SDS011;2782;52.362;10.012;2023-07-13T05:01:42;3.40;;;1.03;;
5519;SDS011;2782;52.362;10.012;2023-07-13T05:02:44;3.15;;;1.10;;
5519;SDS011;2782;52.362;10.012;2023-07-13T05:03:45;2.55;;;0.95;;
5519;SDS011;2782;52.362;10.012;2023-07-13T05:04:47;5.90;;;1.10;;
5519;SDS011;2782;52.362;10.012;2023-07-13T05:05:54;2.75;;;1.35;;
5519;SDS011;2782;52.362;10.012;2023-07-13T05:06:57;3.05;;;1.05;;
5519;SDS011;2782;52.362;10.012;2023-07-13T05:07:59;4.53;;;0.95;;
5519;SDS011;2782;52.362;10.012;2023-07-13T05:09:01;3.08;;;1.27;;
5519;SDS011;2782;52.362;10.012;2023-07-13T05:10:01;4.43;;;1.17;;
5519;SDS011;2782;52.362;10.012;2023-07-13T05:11:03;4.47;;;1.15;;
5519;SDS011;2782;52.362;10.012;2023-07-13T05:12:10;1.25;;;0.55;;
5519;SDS011;2782;52.362;10.012;2023-07-13T05:13:12;6.03;;;1.45;;
5519;SDS011;2782;52.362;10.012;2023-07-13T05:14:12;8.67;;;1.60;;
5519;SDS011;2782;52.362;10.012;2023-07-13T05:15:16;11.63;;;1.30;;
5519;SDS011;2782;52.362;10.012;2023-07-13T05:16:20;3.05;;;0.82;;
5519;SDS011;2782;52.362;10.012;2023-07-13T05:17:22;3.75;;;1.23;;
5519;SDS011;2782;52.362;10.012;2023-07-13T05:18:23;5.10;;;1.33;;
5519;SDS011;2782;52.362;10.012;2023-07-13T05:19:23;3.47;;;0.90;;
5519;SDS011;2782;52.362;10.012;2023-07-13T05:20:25;3.22;;;1.00;;
5519;SDS011;2782;52.362;10.012;2023-07-13T05:21:26;7.37;;;1.47;;
5519;SDS011;2782;52.362;10.012;2023-07-13T05:22:28;4.93;;;1.77;;
5519;SDS011;2782;52.362;10.012;2023-07-13T05:23:28;9.63;;;1.60;;
5519;SDS011;2782;52.362;10.012;2023-07-13T05:24:30;9.93;;;2.03;;
5519;SDS011;2782;52.362;10.012;2023-07-13T05:25:31;8.10;;;1.73;;
5519;SDS011;2782;52.362;10.012;2023-07-13T05:26:32;6.77;;;1.40;;
5519;SDS011;2782;52.362;10.012;2023-07-13T05:27:35;11.95;;;1.52;;
5519;SDS011;2782;52.362;10.012;2023-07-13T05:28:36;4.28;;;1.20;;
5519;SDS011;2782;52.362;10.012;2023-07-13T05:29:38;10.25;;;1.30;;
5519;SDS011;2782;52.362;10.012;2023-07-13T05:30:39;5.53;;;1.37;;
5519;SDS011;2782;52.362;10.012;2023-07-13T05:31:40;6.50;;;1.50;;
5519;SDS011;2782;52.362;10.012;2023-07-13T05:32:41;11.07;;;1.60;;
5519;SDS011;2782;52.362;10.012;2023-07-13T05:33:42;7.13;;;1.55;;
5519;SDS011;2782;52.362;10.012;2023-07-13T05:34:43;1.83;;;0.93;;
5519;SDS011;2782;52.362;10.012;2023-07-13T05:35:45;3.85;;;1.10;;
5519;SDS011;2782;52.362;10.012;2023-07-13T05:36:45;15.37;;;4.23;;
5519;SDS011;2782;52.362;10.012;2023-07-13T05:37:47;21.08;;;5.10;;
5519;SDS011;2782;52.362;10.012;2023-07-13T05:38:48;17.40;;;4.60;;
5519;SDS011;2782;52.362;10.012;2023-07-13T05:39:49;26.08;;;4.57;;
5519;SDS011;2782;52.362;10.012;2023-07-13T05:40:50;15.53;;;3.90;;
5519;SDS011;2782;52.362;10.012;2023-07-13T05:41:52;20.52;;;3.72;;
5519;SDS011;2782;52.362;10.012;2023-07-13T05:42:53;14.50;;;3.33;;
5519;SDS011;2782;52.362;10.012;2023-07-13T05:43:55;14.98;;;3.30;;
5519;SDS011;2782;52.362;10.012;2023-07-13T05:44:56;7.30;;;2.20;;
5519;SDS011;2782;52.362;10.012;2023-07-13T05:45:57;6.65;;;2.03;;
5519;SDS011;2782;52.362;10.012;2023-07-13T05:46:58;10.33;;;1.97;;
5519;SDS011;2782;52.362;10.012;2023-07-13T05:48:02;9.25;;;1.58;;
5519;SDS011;2782;52.362;10.012;2023-07-13T05:49:03;3.87;;;1.47;;
5519;SDS011;2782;52.362;10.012;2023-07-13T05:50:05;10.10;;;1.73;;
5519;SDS011;2782;52.362;10.012;2023-07-13T05:51:07;14.25;;;2.35;;
5519;SDS011;2782;52.362;10.012;2023-07-13T05:52:09;7.78;;;2.10;;
5519;SDS011;2782;52.362;10.012;2023-07-13T05:53:09;7.13;;;2.73;;
5519;SDS011;2782;52.362;10.012;2023-07-13T05:54:12;6.93;;;1.77;;
5519;SDS011;2782;52.362;10.012;2023-07-13T05:55:13;13.93;;;2.17;;
5519;SDS011;2782;52.362;10.012;2023-07-13T05:56:16;11.25;;;1.60;;
5519;SDS011;2782;52.362;10.012;2023-07-13T05:57:16;7.72;;;1.50;;
5519;SDS011;2782;52.362;10.012;2023-07-13T05:58:19;12.27;;;1.73;;
5519;SDS011;2782;52.362;10.012;2023-07-13T05:59:20;5.85;;;1.55;;
5519;SDS011;2782;52.362;10.012;2023-07-13T06:00:22;2.65;;;1.00;;
5519;SDS011;2782;52.362;10.012;2023-07-13T06:01:22;7.90;;;1.40;;
5519;SDS011;2782;52.362;10.012;2023-07-13T06:02:24;6.30;;;1.10;;
5519;SDS011;2782;52.362;10.012;2023-07-13T06:03:25;4.32;;;1.13;;
5519;SDS011;2782;52.362;10.012;2023-07-13T06:04:26;6.03;;;1.20;;
5519;SDS011;2782;52.362;10.012;2023-07-13T06:05:28;4.88;;;1.70;;
5519;SDS011;2782;52.362;10.012;2023-07-13T06:06:28;8.07;;;1.37;;
5519;SDS011;2782;52.362;10.012;2023-07-13T06:07:30;7.20;;;1.67;;
5519;SDS011;2782;52.362;10.012;2023-07-13T06:08:31;8.33;;;1.70;;
5519;SDS011;2782;52.362;10.012;2023-07-13T06:09:32;8.45;;;1.80;;
5519;SDS011;2782;52.362;10.012;2023-07-13T06:10:33;7.85;;;0.85;;
5519;SDS011;2782;52.362;10.012;2023-07-13T06:11:36;7.15;;;1.33;;
5519;SDS011;2782;52.362;10.012;2023-07-13T06:12:36;5.97;;;1.87;;
5519;SDS011;2782;52.362;10.012;2023-07-13T06:13:39;4.22;;;0.80;;
5519;SDS011;2782;52.362;10.012;2023-07-13T06:14:40;6.00;;;1.58;;
5519;SDS011;2782;52.362;10.012;2023-07-13T06:15:41;6.30;;;1.80;;
5519;SDS011;2782;52.362;10.012;2023-07-13T06:16:42;6.10;;;1.90;;
5519;SDS011;2782;52.362;10.012;2023-07-13T06:17:43;8.18;;;1.00;;
5519;SDS011;2782;52.362;10.012;2023-07-13T06:18:45;5.68;;;0.85;;